Time;durP1;ratioP1;P1;durP2;ratioP2;P2;SDS_P1;SDS_P2;PMS_P1;PMS_P2;Temp;Humidity;BMP_temperature;BMP_pressure;BME280_temperature;BME280_humidity;BME280_pressure;Samples;Min_cycle;Max_cycle;Signal;HPM_P1;HPM_P2
2022/10/08 00:00:53;;;;;;;12.03;6.62;;;;;;;7.42;78.95;99669.48;1752663;81;20942;-60
2022/10/08 00:03:24;;;;;;;12.45;6.83;;;;;;;7.38;78.87;99664.86;1757783;81;21504;-60
2022/10/08 00:05:57;;;;;;;13.80;7.30;;;;;;;7.36;78.92;99661.45;1757192;81;20970;-60
2022/10/08 00:08:26;;;;;;;15.65;7.30;;;;;;;7.35;78.93;99657.17;1757434;80;20969;-60
2022/10/08 00:11:03;;;;;;;16.42;7.33;;;;;;;7.30;79.10;99656.48;1755699;80;21050;-60
2022/10/08 00:13:39;;;;;;;9.18;7.45;;;;;;;7.34;79.06;99647.70;1758689;80;20942;-61
2022/10/08 00:16:02;;;;;;;10.82;7.58;;;;;;;7.32;78.91;99641.70;1756907;80;21598;-60
2022/10/08 00:18:30;;;;;;;14.10;7.15;;;;;;;7.28;78.91;99640.13;1757127;80;21038;-60
2022/10/08 00:21:13;;;;;;;11.08;7.03;;;;;;;7.24;78.87;99635.92;1759489;81;20903;-60
2022/10/08 00:23:38;;;;;;;11.83;7.45;;;;;;;7.21;79.04;99641.69;1755606;81;21807;-60
2022/10/08 00:26:06;;;;;;;13.30;7.53;;;;;;;7.17;79.07;99635.30;1755707;81;20906;-60
2022/10/08 00:28:37;;;;;;;13.15;7.22;;;;;;;7.15;79.05;99628.46;1756584;81;21022;-60
2022/10/08 00:31:10;;;;;;;11.25;7.70;;;;;;;7.07;79.32;99627.87;1757566;81;21500;-60
2022/10/08 00:33:37;;;;;;;11.28;7.25;;;;;;;7.03;79.35;99621.08;1755463;81;21101;-60
2022/10/08 00:36:07;;;;;;;13.93;6.87;;;;;;;6.98;79.37;99619.96;1756032;81;21865;-61
2022/10/08 00:38:35;;;;;;;12.88;7.25;;;;;;;6.94;79.48;99616.59;1759682;79;21048;-61
2022/10/08 00:41:04;;;;;;;11.83;7.72;;;;;;;6.94;79.63;99612.70;1764950;79;21026;-60
2022/10/08 00:43:47;;;;;;;11.73;8.43;;;;;;;6.90;79.82;99615.02;1805013;78;20927;-60
2022/10/08 00:46:35;;;;;;;14.35;7.05;;;;;;;6.86;79.97;99612.14;1815081;78;21048;-61
2022/10/08 00:49:11;;;;;;;;;;;;;;;6.85;79.88;99606.53;1818681;78;20973;-61
2022/10/08 00:51:45;;;;;;;17.98;7.33;;;;;;;6.85;79.79;99607.83;1814465;78;20262;-60
2022/10/08 00:54:12;;;;;;;17.75;8.05;;;;;;;6.81;79.72;99604.95;1810834;78;20926;-60
2022/10/08 00:56:40;;;;;;;9.15;6.87;;;;;;;6.76;79.83;99608.16;1812513;78;20924;-60
2022/10/08 00:59:10;;;;;;;11.80;8.13;;;;;;;6.71;79.74;99604.86;1810095;78;20995;-61
2022/10/08 01:01:40;;;;;;;11.50;7.25;;;;;;;6.66;79.70;99606.75;1810611;78;21078;-60
2022/10/08 01:04:07;;;;;;;11.28;7.37;;;;;;;6.61;79.76;99597.84;1813241;78;20953;-60
2022/10/08 01:06:45;;;;;;;9.50;7.12;;;;;;;6.49;79.94;99605.55;1790194;78;20980;-61
2022/10/08 01:09:19;;;;;;;11.22;6.95;;;;;;;6.52;79.86;99601.17;1809860;77;20936;-60
2022/10/08 01:12:06;;;;;;;9.00;7.10;;;;;;;6.46;80.00;99592.69;1813036;78;21396;-60
2022/10/08 01:14:41;;;;;;;10.78;7.10;;;;;;;6.41;80.11;99584.23;1801354;77;21057;-61
2022/10/08 01:17:16;;;;;;;14.58;7.40;;;;;;;6.38;80.13;99580.41;1813494;77;20930;-60
2022/10/08 01:20:13;;;;;;;10.45;7.58;;;;;;;6.34;80.18;99577.53;1814013;77;20925;-60
2022/10/08 01:22:57;;;;;;;13.50;7.97;;;;;;;6.32;80.33;99576.73;1813380;77;20867;-60
2022/10/08 01:25:38;;;;;;;15.70;8.00;;;;;;;6.27;80.24;99575.59;1809568;78;21483;-60
2022/10/08 01:28:31;;;;;;;14.18;7.33;;;;;;;6.23;80.23;99573.14;1806041;78;21135;-60
2022/10/08 01:31:05;;;;;;;12.37;7.33;;;;;;;6.20;80.46;99583.16;1810881;78;20898;-61
2022/10/08 01:33:49;;;;;;;11.40;7.22;;;;;;;6.19;80.43;99578.00;1812134;78;20976;-61
2022/10/08 01:36:18;;;;;;;14.47;7.08;;;;;;;6.17;80.54;99574.64;1805942;78;21474;-60
2022/10/08 01:38:52;;;;;;;17.62;8.20;;;;;;;6.16;80.60;99572.50;1798506;78;20911;-61
2022/10/08 01:41:23;;;;;;;14.63;8.43;;;;;;;6.14;80.58;99572.14;1736572;82;21161;-60
2022/10/08 01:43:59;;;;;;;11.22;7.22;;;;;;;6.12;80.64;99568.29;1771404;80;20918;-60
2022/10/08 01:46:30;;;;;;;12.58;7.35;;;;;;;6.10;80.60;99566.64;1772202;79;20871;-61
2022/10/08 01:49:04;;;;;;;10.68;7.05;;;;;;;6.10;80.84;99564.05;1763615;80;21033;-60
2022/10/08 01:51:35;;;;;;;12.33;7.80;;;;;;;6.09;80.80;99562.36;1768769;79;21729;-60
2022/10/08 01:54:06;;;;;;;10.88;6.70;;;;;;;6.06;80.75;99558.13;1765525;80;21138;-61
2022/10/08 01:56:36;;;;;;;14.73;9.00;;;;;;;6.03;80.79;99552.58;1769312;79;20918;-60
2022/10/08 01:59:10;;;;;;;12.65;7.30;;;;;;;6.00;80.78;99550.09;1767884;80;20938;-60
2022/10/08 02:02:00;;;;;;;10.10;6.90;;;;;;;5.99;80.81;99545.81;1769213;80;20966;-61
2022/10/08 02:04:33;;;;;;;15.15;8.20;;;;;;;5.99;80.95;99543.22;1767312;80;20946;-61
2022/10/08 02:07:09;;;;;;;16.52;8.40;;;;;;;5.98;81.06;99533.73;1770869;80;20996;-60
2022/10/08 02:09:41;;;;;;;11.68;7.30;;;;;;;5.98;81.09;99532.44;1766082;80;20973;-60
2022/10/08 02:12:09;;;;;;;14.75;7.72;;;;;;;5.98;81.08;99535.48;1769595;80;20942;-60
2022/10/08 02:14:46;;;;;;;10.25;7.12;;;;;;;5.97;81.17;99534.64;1748577;80;20886;-61
2022/10/08 02:17:19;;;;;;;;;;;;;;;5.97;81.14;99531.20;1768782;80;21028;-60
2022/10/08 02:20:02;;;;;;;10.85;7.03;;;;;;;5.96;81.30;99535.52;1771233;79;21226;-60
2022/10/08 02:22:41;;;;;;;14.35;7.33;;;;;;;5.93;81.18;99527.84;1765979;79;21415;-60
2022/10/08 02:25:31;;;;;;;12.00;7.20;;;;;;;5.92;81.27;99521.39;1771279;80;20938;-60
2022/10/08 02:28:08;;;;;;;10.78;6.87;;;;;;;5.92;81.36;99519.64;1767674;79;21009;-60
2022/10/08 02:30:42;;;;;;;13.83;6.95;;;;;;;5.91;81.44;99510.19;1767695;80;21111;-60
2022/10/08 02:33:14;;;;;;;12.60;7.67;;;;;;;5.89;81.31;99510.67;1767421;80;21676;-61
2022/10/08 02:35:48;;;;;;;9.65;6.53;;;;;;;5.88;81.27;99514.17;1771429;79;20938;-60
2022/10/08 02:38:41;;;;;;;13.40;7.30;;;;;;;5.86;81.38;99513.36;1766349;79;20973;-60
2022/10/08 02:41:11;;;;;;;9.20;6.90;;;;;;;5.86;81.53;99515.95;1770674;80;21075;-60
2022/10/08 02:43:43;;;;;;;11.75;7.10;;;;;;;5.88;81.48;99508.98;1770848;79;21037;-60
2022/10/08 02:46:17;;;;;;;10.63;6.97;;;;;;;5.88;81.53;99508.98;1769157;79;21085;-61
2022/10/08 02:49:16;;;;;;;12.88;6.72;;;;;;;5.89;81.56;99515.85;1771082;79;20933;-60
2022/10/08 02:51:48;;;;;;;11.85;6.15;;;;;;;5.90;81.70;99516.24;1767584;80;20939;-60
2022/10/08 02:54:18;;;;;;;8.90;5.67;;;;;;;5.95;81.85;99513.09;1764863;80;21685;-60
2022/10/08 02:56:54;;;;;;;11.33;6.28;;;;;;;5.98;81.75;99516.88;1772055;79;21421;-60
2022/10/08 02:59:22;;;;;;;10.30;5.90;;;;;;;6.01;81.83;99518.08;1764195;80;21076;-60
2022/10/08 03:02:04;;;;;;;8.60;5.08;;;;;;;6.03;81.86;99516.30;1765208;79;21021;-60
2022/10/08 03:04:47;;;;;;;16.10;5.85;;;;;;;6.08;82.06;99512.69;1769197;79;20938;-60
2022/10/08 03:07:14;;;;;;;8.20;5.50;;;;;;;6.16;82.02;99510.70;1769799;80;20985;-60
2022/10/08 03:09:44;;;;;;;13.13;5.75;;;;;;;6.20;81.94;99502.78;1770555;79;21622;-60
2022/10/08 03:12:11;;;;;;;11.70;5.35;;;;;;;6.25;82.14;99493.57;1769457;80;21495;-60
2022/10/08 03:14:42;;;;;;;13.18;6.15;;;;;;;6.32;82.11;99498.94;1769745;79;20956;-60
2022/10/08 03:17:12;;;;;;;7.72;5.17;;;;;;;6.38;82.06;99498.72;1770333;80;20953;-60
2022/10/08 03:19:38;;;;;;;7.45;5.35;;;;;;;6.40;82.06;99494.34;1769719;80;20985;-61
2022/10/08 03:22:07;;;;;;;10.68;4.72;;;;;;;6.43;82.19;99499.42;1769726;79;20982;-60
2022/10/08 03:24:35;;;;;;;8.13;4.70;;;;;;;6.46;82.18;99495.42;1765570;79;21028;-60
2022/10/08 03:27:02;;;;;;;7.95;5.03;;;;;;;6.52;82.30;99498.71;1768947;80;20972;-60
2022/10/08 03:29:29;;;;;;;10.35;5.42;;;;;;;6.57;82.33;99495.52;1772041;80;20937;-60
2022/10/08 03:31:56;;;;;;;7.55;5.17;;;;;;;6.61;82.35;99486.71;1764489;80;20913;-60
2022/10/08 03:34:25;;;;;;;10.70;5.87;;;;;;;6.65;82.36;99489.61;1769205;80;21582;-61
2022/10/08 03:36:51;;;;;;;15.15;5.35;;;;;;;6.68;82.47;99476.08;1770611;80;21025;-60
2022/10/08 03:39:18;;;;;;;11.73;5.80;;;;;;;6.75;82.48;99479.32;1770203;79;21071;-61
2022/10/08 03:41:45;;;;;;;8.53;5.78;;;;;;;6.78;82.40;99475.31;1779060;80;20954;-60
2022/10/08 03:44:12;;;;;;;11.18;6.10;;;;;;;6.82;82.48;99470.40;1779413;80;21520;-60
2022/10/08 03:46:39;;;;;;;11.55;6.22;;;;;;;6.85;82.44;99466.84;1780485;79;20918;-60
2022/10/08 03:49:05;;;;;;;9.43;4.97;;;;;;;6.86;82.52;99464.21;1777795;79;21496;-60
2022/10/08 03:51:32;;;;;;;14.30;6.27;;;;;;;6.89;82.58;99464.09;1776302;79;20965;-60
2022/10/08 03:53:59;;;;;;;10.90;5.37;;;;;;;6.94;82.50;99472.54;1775148;78;21032;-60
2022/10/08 03:56:25;;;;;;;9.60;5.42;;;;;;;6.98;82.49;99472.45;1786157;79;21374;-60
2022/10/08 03:58:58;;;;;;;8.30;5.58;;;;;;;7.00;82.42;99473.22;1776179;80;21543;-61
2022/10/08 04:01:27;;;;;;;9.23;5.58;;;;;;;7.01;82.46;99473.64;1777601;80;21043;-60
2022/10/08 04:03:53;;;;;;;12.03;5.97;;;;;;;7.03;82.42;99467.91;1778121;79;21005;-61
2022/10/08 04:06:20;;;;;;;13.70;6.07;;;;;;;7.02;82.46;99477.45;1781868;80;21490;-60
2022/10/08 04:08:47;;;;;;;10.05;5.65;;;;;;;7.04;82.45;99480.02;1779145;79;20993;-60
2022/10/08 04:11:16;;;;;;;12.30;5.60;;;;;;;7.02;82.36;99472.27;1765723;79;20994;-60
2022/10/08 04:13:43;;;;;;;11.22;5.30;;;;;;;7.01;82.38;99474.94;1774171;80;21067;-60
2022/10/08 04:16:15;;;;;;;10.95;4.83;;;;;;;7.00;82.38;99481.01;1740733;81;20998;-61
2022/10/08 04:18:43;;;;;;;11.18;4.97;;;;;;;6.99;82.44;99472.84;1742995;81;21428;-60
2022/10/08 04:21:13;;;;;;;12.60;6.12;;;;;;;6.99;82.44;99481.92;1770178;80;21614;-60
2022/10/08 04:23:41;;;;;;;10.70;5.67;;;;;;;6.97;82.51;99476.77;1771883;80;21006;-60
2022/10/08 04:26:10;;;;;;;11.18;5.92;;;;;;;6.98;82.52;99477.64;1775373;80;21633;-61
2022/10/08 04:28:39;;;;;;;6.75;5.17;;;;;;;6.99;82.45;99479.33;1750987;80;20978;-60
2022/10/08 04:31:16;;;;;;;14.07;5.80;;;;;;;6.99;82.43;99483.22;1773124;80;20938;-60
2022/10/08 04:33:45;;;;;;;12.28;5.53;;;;;;;6.99;82.39;99483.22;1768994;80;21058;-60
2022/10/08 04:36:14;;;;;;;;;;;;;;;6.98;82.35;99480.24;1778009;79;21068;-61
2022/10/08 04:38:45;;;;;;;8.15;5.58;;;;;;;6.91;82.37;99475.25;1744600;80;20974;-61
2022/10/08 04:41:14;;;;;;;8.80;5.10;;;;;;;6.91;82.43;99477.84;1776786;80;20942;-61
2022/10/08 04:43:43;;;;;;;8.33;5.40;;;;;;;6.87;82.37;99476.27;1781219;80;20946;-60
2022/10/08 04:46:13;;;;;;;11.78;5.08;;;;;;;6.86;82.41;99466.80;1780490;78;22130;-60
2022/10/08 04:48:53;;;;;;;11.48;6.12;;;;;;;6.83;82.59;99475.97;1783325;80;21464;-61
2022/10/08 04:51:23;;;;;;;9.93;5.30;;;;;;;6.84;82.34;99477.69;1784918;79;21306;-60
2022/10/08 04:54:15;;;;;;;12.23;5.35;;;;;;;6.80;82.34;99474.79;1778780;79;21435;-60
2022/10/08 04:56:30;;;;;;;10.82;5.72;;;;;;;6.72;82.59;99475.50;1760410;79;21013;-60
2022/10/08 04:59:00;;;;;;;10.43;5.25;;;;;;;6.67;82.71;99468.36;1781996;80;21006;-60
2022/10/08 05:01:29;;;;;;;10.95;5.33;;;;;;;6.68;82.68;99464.86;1780810;80;20897;-60
2022/10/08 05:03:57;;;;;;;7.65;5.15;;;;;;;6.67;82.76;99474.84;1779955;80;21368;-59
2022/10/08 05:06:28;;;;;;;7.37;4.90;;;;;;;6.59;83.07;99472.97;1774101;80;20915;-60
2022/10/08 05:08:55;;;;;;;7.90;5.53;;;;;;;6.69;82.95;99472.59;1783340;80;21479;-60
2022/10/08 05:11:25;;;;;;;11.10;5.40;;;;;;;6.72;82.99;99480.70;1781065;80;20934;-60
2022/10/08 05:13:53;;;;;;;12.30;6.40;;;;;;;6.77;83.07;99476.66;1780090;80;20986;-60
2022/10/08 05:16:20;;;;;;;11.78;6.00;;;;;;;6.81;83.00;99486.88;1782030;79;21097;-60
2022/10/08 05:18:49;;;;;;;10.95;6.30;;;;;;;6.80;82.85;99485.16;1780090;80;20882;-60
2022/10/08 05:21:20;;;;;;;15.75;5.95;;;;;;;6.83;82.82;99488.95;1778471;80;20934;-60
2022/10/08 05:23:47;;;;;;;12.68;5.87;;;;;;;6.88;82.81;99488.34;1780886;80;20967;-60
2022/10/08 05:26:27;;;;;;;14.07;6.60;;;;;;;7.02;83.08;99479.22;1779614;80;20989;-60
2022/10/08 05:28:56;;;;;;;10.75;6.85;;;;;;;7.31;83.27;99476.39;1781646;80;21718;-60
2022/10/08 05:31:25;;;;;;;8.13;5.60;;;;;;;7.63;83.13;99477.73;1779862;80;21055;-60
2022/10/08 05:33:52;;;;;;;8.85;4.78;;;;;;;7.95;83.02;99482.56;1779019;79;20937;-60
2022/10/08 05:36:30;;;;;;;9.05;4.10;;;;;;;8.18;82.72;99479.89;1758870;80;20907;-59
2022/10/08 05:38:59;;;;;;;10.70;4.60;;;;;;;8.22;82.30;99477.53;1786296;78;21028;-60
2022/10/08 05:41:29;;;;;;;6.72;4.15;;;;;;;8.22;82.31;99483.20;1781513;80;21940;-60
2022/10/08 05:43:57;;;;;;;6.92;3.87;;;;;;;8.35;82.74;99484.85;1785014;80;21443;-60
2022/10/08 05:46:26;;;;;;;7.80;4.03;;;;;;;8.52;82.58;99487.61;1780467;80;20986;-60
2022/10/08 05:48:54;;;;;;;5.67;4.30;;;;;;;8.51;82.35;99492.41;1769327;80;20927;-60
2022/10/08 05:51:21;;;;;;;6.83;4.05;;;;;;;8.50;82.42;99480.32;1779826;79;20969;-60
2022/10/08 05:53:50;;;;;;;7.62;4.20;;;;;;;8.52;82.60;99483.71;1775170;80;21393;-59
2022/10/08 05:56:21;;;;;;;9.58;3.70;;;;;;;8.62;82.73;99474.58;1775403;80;20911;-60
2022/10/08 05:58:50;;;;;;;5.80;3.70;;;;;;;8.65;82.53;99478.34;1778388;80;32881;-60
2022/10/08 06:01:24;;;;;;;7.87;3.92;;;;;;;8.64;82.54;99472.76;1768275;80;20875;-60
2022/10/08 06:04:01;;;;;;;6.58;4.00;;;;;;;8.67;82.59;99476.53;1788274;80;21054;-59
2022/10/08 06:06:28;;;;;;;7.65;4.03;;;;;;;8.72;82.71;99469.38;1782577;80;21007;-60
2022/10/08 06:09:00;;;;;;;5.00;3.52;;;;;;;8.82;82.75;99472.86;1769893;80;20831;-61
2022/10/08 06:11:29;;;;;;;7.12;3.80;;;;;;;8.85;82.70;99470.13;1755824;80;20897;-60
2022/10/08 06:13:58;;;;;;;6.37;3.62;;;;;;;8.91;82.77;99473.78;1785901;80;21404;-60
2022/10/08 06:16:27;;;;;;;5.95;3.67;;;;;;;9.00;82.80;99477.27;1782246;80;20989;-61
2022/10/08 06:18:54;;;;;;;10.25;3.90;;;;;;;9.10;82.80;99473.34;1775303;80;21021;-62
2022/10/08 06:21:24;;;;;;;7.10;3.77;;;;;;;9.15;82.67;99473.96;1776013;80;21078;-61
2022/10/08 06:23:58;;;;;;;6.37;3.92;;;;;;;9.28;82.77;99474.72;1780479;80;20928;-61
2022/10/08 06:26:31;;;;;;;8.18;3.58;;;;;;;9.33;82.49;99468.84;1778844;80;21900;-63
2022/10/08 06:28:58;;;;;;;5.00;3.70;;;;;;;9.38;82.54;99468.16;1785506;80;20973;-61
2022/10/08 06:31:25;;;;;;;7.80;3.60;;;;;;;9.47;82.67;99471.66;1773871;80;21534;-62
2022/10/08 06:33:57;;;;;;;7.65;4.90;;;;;;;9.69;82.74;99473.23;1783432;80;20994;-61
2022/10/08 06:36:27;;;;;;;6.87;4.90;;;;;;;9.80;82.51;99473.56;1781679;79;20948;-61
2022/10/08 06:39:06;;;;;;;6.90;4.65;;;;;;;9.85;82.31;99471.58;1776468;80;20969;-62
2022/10/08 06:41:33;;;;;;;7.17;3.72;;;;;;;9.94;82.54;99475.08;1781030;79;21928;-61
2022/10/08 06:44:02;;;;;;;;;;;;;;;10.07;82.43;99477.45;1788471;78;21176;-62
2022/10/08 06:46:31;;;;;;;8.20;4.08;;;;;;;10.19;82.63;99472.55;1751494;80;20108;-61
2022/10/08 06:48:59;;;;;;;4.10;3.40;;;;;;;10.33;82.82;99471.42;1777772;80;20942;-62
2022/10/08 06:51:26;;;;;;;7.80;3.72;;;;;;;10.45;82.54;99464.30;1784112;79;21573;-61
2022/10/08 06:53:55;;;;;;;7.85;3.80;;;;;;;10.58;82.69;99466.27;1779158;79;20954;-61
2022/10/08 06:56:24;;;;;;;8.20;3.60;;;;;;;10.68;82.43;99467.03;1780815;80;21031;-62
2022/10/08 06:58:51;;;;;;;9.68;4.22;;;;;;;10.71;82.29;99461.64;1782058;79;20938;-61
2022/10/08 07:01:26;;;;;;;7.08;4.03;;;;;;;10.74;82.16;99457.56;1780623;78;20917;-61
2022/10/08 07:03:57;;;;;;;5.75;3.62;;;;;;;10.79;82.26;99467.78;1784085;80;21962;-61
2022/10/08 07:06:24;;;;;;;6.42;3.60;;;;;;;10.90;82.41;99465.45;1782532;80;20964;-61
2022/10/08 07:08:52;;;;;;;;;;;;;;;10.96;82.21;99463.81;1787834;79;21985;-61
2022/10/08 07:11:19;;;;;;;8.45;4.28;;;;;;;11.15;82.36;99456.31;1782203;79;20092;-60
2022/10/08 07:13:46;;;;;;;;;;;;;;;11.15;82.36;99456.31;1781840;78;21057;-60
2022/10/08 07:16:18;;;;;;;6.78;3.75;;;;;;;11.42;82.82;99456.56;1777914;80;20476;-60
2022/10/08 07:18:46;;;;;;;5.70;4.17;;;;;;;11.63;82.46;99457.16;1780988;80;20938;-61
2022/10/08 07:21:15;;;;;;;10.23;4.28;;;;;;;11.75;82.44;99456.47;1781870;79;21043;-62
2022/10/08 07:23:42;;;;;;;8.73;5.28;;;;;;;11.80;82.37;99458.83;1778572;80;20856;-62
2022/10/08 07:26:16;;;;;;;10.98;6.08;;;;;;;12.00;82.32;99465.11;1784954;78;20930;-61
2022/10/08 07:28:52;;;;;;;6.58;4.12;;;;;;;12.16;82.32;99457.23;1775575;80;21515;-64
2022/10/08 07:31:22;;;;;;;7.70;3.95;;;;;;;12.28;82.45;99455.19;1774220;80;20923;-62
2022/10/08 07:33:49;;;;;;;7.17;4.17;;;;;;;12.34;82.02;99451.84;1778832;80;21835;-61
2022/10/08 07:36:22;;;;;;;9.08;4.12;;;;;;;12.44;81.97;99438.59;1779186;80;20907;-61
2022/10/08 07:38:57;;;;;;;7.55;4.05;;;;;;;12.59;81.88;99448.14;1784036;79;21429;-61
2022/10/08 07:41:24;;;;;;;7.85;3.90;;;;;;;12.67;81.79;99446.38;1772936;80;20986;-62
2022/10/08 07:43:54;;;;;;;7.58;3.90;;;;;;;12.78;81.59;99444.42;1773938;80;21063;-62
2022/10/08 07:46:21;;;;;;;8.78;3.65;;;;;;;12.85;81.48;99440.48;1776741;79;21689;-61
2022/10/08 07:48:49;;;;;;;6.72;3.58;;;;;;;12.90;81.18;99442.36;1779113;80;20922;-61
2022/10/08 07:51:19;;;;;;;9.73;4.00;;;;;;;13.01;81.29;99435.98;1776607;79;20871;-61
2022/10/08 07:53:46;;;;;;;7.60;3.92;;;;;;;13.27;81.67;99437.00;1780650;80;21515;-62
2022/10/08 07:56:15;;;;;;;9.25;3.80;;;;;;;13.63;81.85;99436.44;1778133;79;21051;-62
2022/10/08 07:58:42;;;;;;;10.15;4.45;;;;;;;13.88;81.31;99432.23;1777850;79;21881;-63
2022/10/08 08:01:15;;;;;;;8.58;4.35;;;;;;;14.02;81.44;99437.41;1780941;78;20929;-61
2022/10/08 08:03:43;;;;;;;6.60;4.22;;;;;;;14.27;81.28;99442.36;1775853;80;20912;-62
2022/10/08 08:06:13;;;;;;;7.95;3.40;;;;;;;14.56;81.55;99433.84;1779270;80;21013;-61
2022/10/08 08:08:43;;;;;;;9.48;4.17;;;;;;;14.88;80.58;99426.38;1779983;80;21025;-61
2022/10/08 08:11:12;;;;;;;9.28;3.70;;;;;;;14.85;79.90;99437.11;1774620;78;21043;-63
2022/10/08 08:13:41;;;;;;;8.53;4.78;;;;;;;14.84;80.20;99432.78;1777417;80;21004;-62
2022/10/08 08:16:14;;;;;;;10.32;4.37;;;;;;;14.73;79.31;99430.05;1776875;79;21025;-61
2022/10/08 08:18:51;;;;;;;16.17;5.08;;;;;;;14.50;79.27;99432.44;1777404;80;20964;-62
2022/10/08 08:21:24;;;;;;;15.57;5.33;;;;;;;14.32;78.50;99437.16;1779560;80;20930;-61
2022/10/08 08:23:53;;;;;;;14.65;5.75;;;;;;;14.01;78.52;99429.66;1776796;79;21519;-62
2022/10/08 08:26:25;;;;;;;10.18;5.20;;;;;;;13.77;78.44;99434.72;1781266;80;20978;-64
2022/10/08 08:28:55;;;;;;;12.50;5.50;;;;;;;13.60;78.71;99436.64;1779688;80;20996;-62
2022/10/08 08:31:34;;;;;;;8.35;4.97;;;;;;;13.52;79.01;99428.42;1778147;79;21048;-63
2022/10/08 08:34:08;;;;;;;8.05;4.00;;;;;;;13.45;78.92;99431.09;1777369;78;21045;-62
2022/10/08 08:36:42;;;;;;;10.40;4.50;;;;;;;13.34;78.50;99433.07;1782734;79;21050;-62
2022/10/08 08:39:16;;;;;;;16.55;5.80;;;;;;;13.26;78.62;99427.94;1780045;79;20910;-61
2022/10/08 08:41:57;;;;;;;7.40;3.90;;;;;;;13.20;78.70;99433.91;1777896;79;21088;-62
2022/10/08 08:44:39;;;;;;;12.82;5.58;;;;;;;13.17;78.43;99431.48;1774501;80;21029;-62
2022/10/08 08:47:40;;;;;;;7.33;4.30;;;;;;;13.25;78.83;99432.76;1770926;80;20989;-62
2022/10/08 08:50:33;;;;;;;12.60;5.50;;;;;;;13.34;78.64;99428.30;1773585;79;21483;-62
2022/10/08 08:53:03;;;;;;;11.75;3.90;;;;;;;13.45;78.52;99422.38;1767036;80;20903;-62
2022/10/08 08:55:40;;;;;;;9.65;4.47;;;;;;;13.53;78.49;99427.50;1774750;80;20947;-63
2022/10/08 08:58:45;;;;;;;6.62;4.05;;;;;;;13.78;78.79;99421.95;1743782;80;20906;-61
2022/10/08 09:01:20;;;;;;;12.13;5.67;;;;;;;13.87;78.34;99422.22;1770552;80;20942;-62
2022/10/08 09:03:51;;;;;;;9.28;4.65;;;;;;;13.85;78.29;99418.01;1766792;80;21492;-63
2022/10/08 09:06:21;;;;;;;8.98;4.53;;;;;;;13.83;78.00;99423.81;1770136;79;21103;-63
2022/10/08 09:09:05;;;;;;;11.93;4.45;;;;;;;13.90;78.44;99431.67;1765182;79;21041;-62
2022/10/08 09:11:32;;;;;;;11.73;4.90;;;;;;;14.06;78.37;99428.89;1776026;80;20965;-62
2022/10/08 09:14:16;;;;;;;9.75;4.25;;;;;;;14.23;78.35;99423.83;1767825;80;21459;-61
2022/10/08 09:16:43;;;;;;;15.78;5.05;;;;;;;14.33;78.08;99429.64;1771888;78;21031;-62
2022/10/08 09:19:10;;;;;;;13.68;4.47;;;;;;;14.48;78.55;99425.61;1772240;80;20883;-60
2022/10/08 09:21:36;;;;;;;9.30;4.28;;;;;;;14.68;78.04;99425.14;1770207;80;21025;-60
2022/10/08 09:24:03;;;;;;;7.22;4.67;;;;;;;14.75;78.21;99422.91;1775578;80;21073;-61
2022/10/08 09:26:34;;;;;;;11.18;3.83;;;;;;;14.92;78.20;99422.58;1770289;79;21092;-60
2022/10/08 09:29:03;;;;;;;8.10;3.62;;;;;;;14.98;77.91;99422.62;1777559;80;21049;-61
2022/10/08 09:31:40;;;;;;;9.53;3.90;;;;;;;15.08;78.08;99408.37;1770160;80;20957;-61
2022/10/08 09:34:17;;;;;;;7.85;3.60;;;;;;;15.22;77.72;99414.31;1742157;79;21423;-60
2022/10/08 09:37:01;;;;;;;9.23;4.00;;;;;;;15.34;77.73;99409.13;1773042;79;20926;-61
2022/10/08 09:39:31;;;;;;;6.40;3.52;;;;;;;15.43;77.59;99408.45;1771482;80;21864;-61
2022/10/08 09:42:13;;;;;;;9.65;3.67;;;;;;;15.55;76.98;99402.80;1779519;80;21049;-61
2022/10/08 09:44:57;;;;;;;11.45;3.77;;;;;;;15.50;76.54;99411.50;1777902;79;20954;-61
2022/10/08 09:47:26;;;;;;;10.98;3.83;;;;;;;15.51;76.79;99415.80;1783886;79;20914;-62
2022/10/08 09:50:20;;;;;;;6.62;3.77;;;;;;;15.55;76.62;99409.38;1756522;80;20929;-61
2022/10/08 09:52:51;;;;;;;7.15;3.62;;;;;;;15.42;76.13;99403.67;1777181;80;21048;-61
2022/10/08 09:55:25;;;;;;;14.40;4.70;;;;;;;15.41;76.55;99408.58;1783238;80;22302;-60
2022/10/08 09:58:02;;;;;;;8.63;3.70;;;;;;;15.58;76.42;99405.20;1780401;78;20909;-61
2022/10/08 10:00:38;;;;;;;6.33;3.65;;;;;;;15.64;76.56;99394.22;1784146;80;21392;-61
2022/10/08 10:03:15;;;;;;;5.08;2.95;;;;;;;15.66;76.01;99391.02;1773191;80;20977;-63
2022/10/08 10:05:42;;;;;;;4.87;2.87;;;;;;;15.64;75.84;99386.33;1784914;79;20988;-63
2022/10/08 10:08:45;;;;;;;9.78;4.60;;;;;;;15.59;75.48;99387.14;1778191;80;21455;-62
2022/10/08 10:11:19;;;;;;;42.53;22.32;;;;;;;15.60;76.31;99383.55;1777606;80;21440;-62
2022/10/08 10:13:48;;;;;;;38.15;22.87;;;;;;;15.69;76.17;99375.03;1784542;79;20925;-63
2022/10/08 10:16:26;;;;;;;72.65;45.17;;;;;;;15.79;76.33;99378.63;1783539;80;21088;-63
2022/10/08 10:19:06;;;;;;;12.15;7.50;;;;;;;15.93;75.93;99380.72;1779559;78;20921;-62
2022/10/08 10:21:38;;;;;;;12.90;4.17;;;;;;;15.92;75.37;99380.38;1784150;79;21055;-62
2022/10/08 10:24:32;;;;;;;8.30;3.72;;;;;;;15.99;75.51;99381.58;1780942;79;20910;-62
2022/10/08 10:27:08;;;;;;;8.93;3.55;;;;;;;16.08;75.30;99375.64;1785361;78;21446;-63
2022/10/08 10:29:47;;;;;;;8.60;3.77;;;;;;;16.08;75.13;99373.00;1785208;80;20982;-61
2022/10/08 10:32:18;;;;;;;9.38;3.83;;;;;;;16.18;74.80;99373.97;1779439;79;20934;-61
2022/10/08 10:34:51;;;;;;;8.28;3.27;;;;;;;16.23;74.97;99374.45;1782334;79;21081;-62
2022/10/08 10:37:24;;;;;;;6.10;3.50;;;;;;;16.23;74.67;99369.19;1781858;79;21527;-61
2022/10/08 10:40:17;;;;;;;6.45;3.22;;;;;;;16.27;74.53;99362.75;1782758;79;21009;-63
2022/10/08 10:42:54;;;;;;;7.10;3.33;;;;;;;16.27;74.39;99370.66;1737406;79;20993;-62
2022/10/08 10:45:27;;;;;;;6.22;2.85;;;;;;;16.21;74.14;99364.51;1770924;80;20954;-63
2022/10/08 10:47:54;;;;;;;7.17;3.12;;;;;;;16.17;74.02;99364.39;1764513;78;21016;-61
2022/10/08 10:50:46;;;;;;;5.47;2.98;;;;;;;16.05;73.88;99357.44;1772940;80;20876;-62
2022/10/08 10:53:27;;;;;;;8.23;3.02;;;;;;;16.03;74.28;99356.70;1771559;79;20979;-62
2022/10/08 10:56:05;;;;;;;9.68;2.50;;;;;;;16.18;74.14;99347.63;1775214;79;20989;-61
2022/10/08 10:58:43;;;;;;;8.40;2.83;;;;;;;16.30;73.82;99349.34;1777053;80;20911;-61
2022/10/08 11:01:30;;;;;;;5.53;2.72;;;;;;;16.30;73.44;99353.77;1769214;80;22046;-62
2022/10/08 11:04:28;;;;;;;6.83;2.72;;;;;;;16.37;73.76;99356.77;1776473;80;20915;-61
2022/10/08 11:07:15;;;;;;;4.95;2.62;;;;;;;16.30;73.02;99354.61;1772725;79;20942;-62
2022/10/08 11:09:45;;;;;;;;;;;;;;;16.15;73.13;99350.49;1755585;80;21531;-61
2022/10/08 11:12:37;;;;;;;6.90;3.00;;;;;;;16.02;72.75;99349.73;1749416;80;20549;-62
2022/10/08 11:15:30;;;;;;;6.60;2.90;;;;;;;16.00;73.38;99343.77;1752787;80;21286;-62
2022/10/08 11:18:17;;;;;;;6.50;1.95;;;;;;;16.08;73.41;99341.41;1715822;81;20895;-62
2022/10/08 11:21:38;;;;;;;4.60;2.17;;;;;;;16.14;72.86;99351.46;1722480;81;20998;-61
2022/10/08 11:24:42;;;;;;;5.72;1.90;;;;;;;16.16;72.89;99344.30;1737095;81;21008;-62
2022/10/08 11:27:39;;;;;;;7.75;2.30;;;;;;;16.15;72.65;99337.33;1725873;81;21452;-61
2022/10/08 11:30:17;;;;;;;3.95;1.85;;;;;;;16.13;72.57;99344.50;1724483;81;21050;-62
2022/10/08 11:32:54;;;;;;;4.87;2.10;;;;;;;16.18;72.71;99338.41;1732721;81;21108;-63
2022/10/08 11:35:31;;;;;;;5.97;2.45;;;;;;;16.31;72.23;99336.52;1750468;81;20971;-59
2022/10/08 11:38:24;;;;;;;5.65;2.40;;;;;;;16.45;71.93;99342.52;1725544;81;21511;-63
2022/10/08 11:41:07;;;;;;;5.75;2.52;;;;;;;16.55;71.81;99331.60;1733848;80;21726;-62
2022/10/08 11:43:54;;;;;;;6.55;2.55;;;;;;;16.63;71.63;99334.48;1746780;81;21491;-62
2022/10/08 11:46:31;;;;;;;8.43;4.17;;;;;;;16.82;71.97;99330.44;1767669;80;21442;-61
2022/10/08 11:49:00;;;;;;;;;;;;;;;16.99;71.59;99327.28;1776408;79;20938;-62
2022/10/08 11:51:33;;;;;;;19.95;12.88;;;;;;;17.05;70.89;99326.79;1771499;80;20432;-62
2022/10/08 11:54:14;;;;;;;7.03;3.60;;;;;;;17.08;71.30;99322.58;1748540;80;20939;-62
2022/10/08 11:56:48;;;;;;;5.92;2.90;;;;;;;17.28;71.37;99326.73;1770191;79;21119;-62
2022/10/08 11:59:29;;;;;;;4.30;2.10;;;;;;;17.39;71.12;99315.67;1776033;80;20906;-61
2022/10/08 12:02:00;;;;;;;7.67;2.50;;;;;;;17.62;70.88;99320.38;1775967;80;20925;-62
2022/10/08 12:04:32;;;;;;;5.50;2.75;;;;;;;17.82;70.95;99306.86;1768803;80;20875;-62
2022/10/08 12:07:07;;;;;;;4.83;2.37;;;;;;;17.95;70.44;99304.49;1778530;80;20959;-62